Time;durP1;ratioP1;P1;durP2;ratioP2;P2;SDS_P1;SDS_P2;PMS_P1;PMS_P2;Temp;Humidity;BMP_temperature;BMP_pressure;BME280_temperature;BME280_humidity;BME280_pressure;Samples;Min_cycle;Max_cycle;Signal;HPM_P1;HPM_P2
2021/05/25 00:00:49;;;;;;;1.30;1.00;;;10.60;86.10;;;;;;5070264;28;20200;-84
2021/05/25 00:03:16;;;;;;;0.70;0.70;;;10.40;84.20;;;;;;5070977;28;20211;-85
2021/05/25 00:05:43;;;;;;;1.08;1.08;;;10.40;84.90;;;;;;5069141;28;20210;-84
2021/05/25 00:08:09;;;;;;;1.02;0.93;;;10.10;84.00;;;;;;5070858;28;20215;-85
2021/05/25 00:10:36;;;;;;;1.02;0.93;;;10.20;85.60;;;;;;5070406;28;20195;-85
2021/05/25 00:13:03;;;;;;;1.77;0.75;;;10.10;84.60;;;;;;5070329;28;20249;-84
2021/05/25 00:15:33;;;;;;;1.25;0.95;;;10.20;86.10;;;;;;5075342;28;20195;-84
2021/05/25 00:17:59;;;;;;;1.75;0.80;;;10.00;85.00;;;;;;5089473;28;20220;-83
2021/05/25 00:20:26;;;;;;;1.02;0.80;;;9.80;86.30;;;;;;5075787;28;20207;-85
2021/05/25 00:22:53;;;;;;;0.95;0.85;;;9.70;87.60;;;;;;5086324;28;20569;-85
2021/05/25 00:25:20;;;;;;;0.90;0.60;;;9.80;87.90;;;;;;5082179;28;20645;-84
2021/05/25 00:27:47;;;;;;;1.92;1.10;;;9.70;88.10;;;;;;5084533;28;20289;-85
2021/05/25 00:30:15;;;;;;;2.42;0.80;;;9.80;88.70;;;;;;5079075;28;20276;-85
2021/05/25 00:32:43;;;;;;;1.52;1.15;;;9.90;88.50;;;;;;5091576;28;20530;-84
2021/05/25 00:35:11;;;;;;;1.00;0.90;;;9.80;88.40;;;;;;5087770;28;20612;-85
2021/05/25 00:37:38;;;;;;;0.80;0.80;;;9.80;89.30;;;;;;5087374;28;20307;-85
2021/05/25 00:40:08;;;;;;;1.02;0.90;;;9.80;89.20;;;;;;5093967;28;20198;-85
2021/05/25 00:42:35;;;;;;;0.88;0.88;;;9.80;89.70;;;;;;5070038;28;20667;-85
2021/05/25 00:45:03;;;;;;;0.98;0.93;;;9.70;90.00;;;;;;5074949;28;20212;-84
2021/05/25 00:47:30;;;;;;;0.90;0.85;;;9.80;90.50;;;;;;5093254;28;20190;-85
2021/05/25 00:50:09;;;;;;;1.20;0.70;;;9.80;89.70;;;;;;5092312;28;20211;-85
2021/05/25 00:52:36;;;;;;;1.48;1.20;;;9.70;90.20;;;;;;5078895;28;20247;-85
2021/05/25 00:55:04;;;;;;;0.80;0.80;;;9.70;90.20;;;;;;5091042;28;20195;-84
2021/05/25 00:57:31;;;;;;;3.10;1.23;;;9.70;90.10;;;;;;5073119;28;20284;-84
2021/05/25 00:59:57;;;;;;;1.77;1.05;;;9.60;89.20;;;;;;5073571;28;20191;-85
2021/05/25 01:02:24;;;;;;;0.80;0.80;;;9.60;90.10;;;;;;5090690;28;20229;-84
2021/05/25 01:04:51;;;;;;;1.20;1.10;;;9.60;90.00;;;;;;5086363;28;20289;-85
2021/05/25 01:07:19;;;;;;;1.40;0.93;;;9.70;90.00;;;;;;5093397;28;20290;-85
2021/05/25 01:09:47;;;;;;;2.33;1.05;;;9.70;89.00;;;;;;5086509;28;20715;-85
2021/05/25 01:12:17;;;;;;;2.08;1.10;;;9.60;89.10;;;;;;5073041;28;20286;-85
2021/05/25 01:14:50;;;;;;;1.35;0.70;;;9.70;89.30;;;;;;5088973;28;20199;-85
2021/05/25 01:17:18;;;;;;;3.45;1.00;;;9.60;87.70;;;;;;5078080;28;20233;-85
2021/05/25 01:19:45;;;;;;;3.13;1.45;;;9.40;87.00;;;;;;5099647;28;20209;-85
2021/05/25 01:22:17;;;;;;;1.15;0.95;;;9.40;88.60;;;;;;5087843;28;20248;-85
2021/05/25 01:24:45;;;;;;;0.80;0.80;;;9.40;88.80;;;;;;5091804;28;20622;-85
2021/05/25 01:27:13;;;;;;;3.15;2.15;;;9.50;88.20;;;;;;5074417;28;20280;-85
2021/05/25 01:29:40;;;;;;;3.33;1.10;;;9.50;87.80;;;;;;5074421;28;20199;-85
2021/05/25 01:32:07;;;;;;;1.33;1.00;;;9.30;87.40;;;;;;5081297;28;20194;-85
2021/05/25 01:34:36;;;;;;;1.10;1.00;;;9.20;87.20;;;;;;5081661;28;20251;-85
2021/05/25 01:37:05;;;;;;;2.95;1.58;;;9.30;88.00;;;;;;5076690;28;20216;-85
2021/05/25 01:39:34;;;;;;;3.58;1.20;;;9.30;87.20;;;;;;5087776;28;20206;-84
2021/05/25 01:42:02;;;;;;;1.77;1.02;;;9.40;87.30;;;;;;5077143;28;20692;-85
2021/05/25 01:44:36;;;;;;;0.85;0.85;;;9.30;86.00;;;;;;5072486;28;20199;-84
2021/05/25 01:47:06;;;;;;;1.35;1.13;;;9.30;85.90;;;;;;5073512;28;20206;-86
2021/05/25 01:49:33;;;;;;;1.70;1.20;;;9.30;86.20;;;;;;5072381;28;20196;-87
2021/05/25 01:52:01;;;;;;;1.92;1.33;;;9.30;87.30;;;;;;5074861;28;20210;-85
2021/05/25 01:54:28;;;;;;;0.75;0.75;;;9.30;87.40;;;;;;5067589;28;20603;-84
2021/05/25 01:56:56;;;;;;;1.98;1.00;;;9.40;86.70;;;;;;5079778;28;20246;-85
2021/05/25 01:59:23;;;;;;;0.80;0.80;;;9.30;85.90;;;;;;5070159;28;20241;-85
2021/05/25 02:01:52;;;;;;;1.92;1.10;;;9.20;85.90;;;;;;5080128;28;20244;-85
2021/05/25 02:04:21;;;;;;;2.97;0.65;;;9.10;85.80;;;;;;5073533;28;20226;-86
2021/05/25 02:06:49;;;;;;;1.33;1.13;;;9.30;86.30;;;;;;5088005;28;20243;-85
2021/05/25 02:09:18;;;;;;;3.55;1.38;;;9.30;85.90;;;;;;5092263;28;20244;-85
2021/05/25 02:11:45;;;;;;;1.20;0.98;;;9.40;85.50;;;;;;5091728;28;20285;-85
2021/05/25 02:14:13;;;;;;;1.48;1.17;;;9.30;84.70;;;;;;5087151;28;20191;-85
2021/05/25 02:16:40;;;;;;;1.48;1.20;;;9.30;86.10;;;;;;5081517;28;20210;-85
2021/05/25 02:19:15;;;;;;;1.48;1.23;;;9.20;84.80;;;;;;5075025;28;20214;-85
2021/05/25 02:21:50;;;;;;;5.85;0.95;;;9.20;84.40;;;;;;5092236;28;20297;-84
2021/05/25 02:24:17;;;;;;;2.60;0.80;;;9.20;85.80;;;;;;5076871;28;20891;-83
2021/05/25 02:26:44;;;;;;;1.02;0.80;;;9.10;85.10;;;;;;5087453;28;20232;-85
2021/05/25 02:29:11;;;;;;;3.60;0.90;;;9.10;85.00;;;;;;5070411;28;20191;-85
2021/05/25 02:31:38;;;;;;;2.88;1.25;;;8.90;85.30;;;;;;5080088;28;20195;-85
2021/05/25 02:34:05;;;;;;;1.98;1.00;;;9.00;84.90;;;;;;5091251;28;20206;-84
2021/05/25 02:36:31;;;;;;;1.20;0.77;;;9.10;84.40;;;;;;5085939;28;20215;-83
2021/05/25 02:38:57;;;;;;;1.95;0.85;;;9.00;83.50;;;;;;5079573;28;20203;-85
2021/05/25 02:41:24;;;;;;;1.10;1.00;;;9.00;82.50;;;;;;5071406;28;20253;-85
2021/05/25 02:43:52;;;;;;;3.35;1.30;;;8.90;83.40;;;;;;5082218;28;20195;-85
2021/05/25 02:46:19;;;;;;;0.95;0.85;;;8.80;83.30;;;;;;5080476;28;20223;-84
2021/05/25 02:48:46;;;;;;;0.70;0.68;;;8.80;84.00;;;;;;5071551;28;20742;-86
2021/05/25 02:51:12;;;;;;;2.30;0.98;;;8.90;83.90;;;;;;5090625;28;20606;-85
2021/05/25 02:53:39;;;;;;;1.10;0.88;;;8.80;82.90;;;;;;5071884;28;20226;-85
2021/05/25 02:56:05;;;;;;;2.35;1.00;;;8.90;83.10;;;;;;5076564;28;20231;-85
2021/05/25 02:58:32;;;;;;;1.17;1.02;;;8.80;82.40;;;;;;5079686;28;20226;-85
2021/05/25 03:00:58;;;;;;;1.42;1.33;;;8.70;82.30;;;;;;5085786;28;20198;-85
2021/05/25 03:03:25;;;;;;;2.40;0.98;;;8.60;82.70;;;;;;5065582;28;20216;-85
2021/05/25 03:05:52;;;;;;;4.60;1.13;;;8.60;82.20;;;;;;5079714;28;20219;-85
2021/05/25 03:08:19;;;;;;;0.88;0.70;;;8.70;82.90;;;;;;5087286;28;20183;-84
2021/05/25 03:10:47;;;;;;;2.40;1.38;;;8.80;82.70;;;;;;5089840;28;20187;-85
2021/05/25 03:13:14;;;;;;;1.67;0.95;;;8.80;82.30;;;;;;5090739;28;20194;-86
2021/05/25 03:15:42;;;;;;;1.10;1.00;;;8.60;82.40;;;;;;5089483;28;20236;-85
2021/05/25 03:18:10;;;;;;;2.08;0.82;;;8.60;82.60;;;;;;5091017;28;20233;-85
2021/05/25 03:20:37;;;;;;;2.15;1.50;;;8.70;82.80;;;;;;5088374;28;20203;-85
2021/05/25 03:23:07;;;;;;;0.80;0.75;;;8.70;82.20;;;;;;5075646;28;20190;-85
2021/05/25 03:25:33;;;;;;;1.55;0.93;;;8.40;81.80;;;;;;5081794;28;20200;-86
2021/05/25 03:28:00;;;;;;;1.27;1.00;;;8.50;82.80;;;;;;5071099;28;20210;-85
2021/05/25 03:30:28;;;;;;;0.93;0.77;;;8.40;82.10;;;;;;5071571;28;20260;-85
2021/05/25 03:32:55;;;;;;;5.57;1.27;;;8.40;82.50;;;;;;5086541;28;20557;-85
2021/05/25 03:35:23;;;;;;;0.85;0.65;;;8.50;82.90;;;;;;5088157;28;20222;-84
2021/05/25 03:37:50;;;;;;;2.28;0.95;;;8.60;83.00;;;;;;5090801;28;20276;-86
2021/05/25 03:40:19;;;;;;;0.95;0.85;;;8.60;83.00;;;;;;5084327;28;20527;-84
2021/05/25 03:42:46;;;;;;;0.50;0.50;;;8.50;82.90;;;;;;5072554;28;20191;-85
2021/05/25 03:45:14;;;;;;;1.80;1.00;;;8.50;83.10;;;;;;5086999;28;20191;-85
2021/05/25 03:47:40;;;;;;;2.10;1.13;;;8.40;83.20;;;;;;5090278;28;20264;-85
2021/05/25 03:50:08;;;;;;;5.40;0.80;;;8.50;83.80;;;;;;5090868;28;20195;-85
2021/05/25 03:52:36;;;;;;;2.72;0.90;;;8.70;83.90;;;;;;5070723;28;20248;-85
2021/05/25 03:55:05;;;;;;;2.95;0.93;;;8.70;83.40;;;;;;5076376;28;20919;-85
2021/05/25 04:00:17;;;;;;;3.15;1.10;;;8.60;83.50;;;;;;5068142;28;20301;-86
2021/05/25 04:02:43;;;;;;;0.70;0.70;;;8.50;83.80;;;;;;5069078;28;20264;-85
2021/05/25 04:05:11;;;;;;;0.95;0.90;;;8.40;83.40;;;;;;5073562;28;20866;-85
2021/05/25 04:07:37;;;;;;;0.80;0.75;;;8.50;83.60;;;;;;5082243;28;20227;-86
2021/05/25 04:10:05;;;;;;;0.93;0.70;;;8.60;83.00;;;;;;5079763;28;20223;-86
2021/05/25 04:12:32;;;;;;;2.65;1.20;;;8.50;83.00;;;;;;5079041;28;20214;-88
2021/05/25 04:14:58;;;;;;;1.02;0.90;;;8.50;83.60;;;;;;5075743;28;20187;-84
2021/05/25 04:17:25;;;;;;;1.90;0.98;;;8.40;84.20;;;;;;5092641;28;20238;-85
2021/05/25 04:19:51;;;;;;;1.38;1.00;;;8.40;83.90;;;;;;5100229;28;20206;-86
2021/05/25 04:22:18;;;;;;;1.23;0.70;;;8.50;84.10;;;;;;5100110;28;20218;-86
2021/05/25 04:24:45;;;;;;;1.58;1.02;;;8.60;83.60;;;;;;5078908;28;20203;-84
2021/05/25 04:27:11;;;;;;;1.40;0.57;;;8.80;83.50;;;;;;5080804;28;20242;-86
2021/05/25 04:29:39;;;;;;;0.93;0.73;;;8.90;82.50;;;;;;5074624;28;20661;-84
2021/05/25 04:32:07;;;;;;;0.93;0.82;;;8.90;82.30;;;;;;5075253;28;20269;-85
2021/05/25 04:34:34;;;;;;;1.30;0.80;;;8.90;82.30;;;;;;5074459;28;20233;-86
2021/05/25 04:37:06;;;;;;;0.70;0.65;;;9.10;82.10;;;;;;5078329;28;20280;-86
2021/05/25 04:39:34;;;;;;;0.77;0.70;;;9.10;81.70;;;;;;5085488;28;20785;-86
2021/05/25 04:42:00;;;;;;;1.60;0.85;;;8.90;81.70;;;;;;5088210;28;20628;-86
2021/05/25 04:44:27;;;;;;;0.60;0.60;;;8.80;81.30;;;;;;5078717;28;20210;-85
2021/05/25 04:46:54;;;;;;;1.65;0.60;;;8.90;83.20;;;;;;5089196;28;20207;-85
2021/05/25 04:49:21;;;;;;;4.00;0.80;;;8.90;81.60;;;;;;5074715;28;20207;-84
2021/05/25 04:51:47;;;;;;;0.73;0.73;;;9.10;81.40;;;;;;5082205;28;20249;-85
2021/05/25 04:54:14;;;;;;;0.50;0.50;;;9.20;80.50;;;;;;5083450;28;20293;-85
2021/05/25 04:56:41;;;;;;;1.17;0.70;;;9.20;79.30;;;;;;5092911;28;20207;-86
2021/05/25 04:59:07;;;;;;;1.30;0.60;;;9.20;80.50;;;;;;5073303;28;20337;-85
2021/05/25 05:01:34;;;;;;;1.95;0.60;;;9.10;78.40;;;;;;5087585;28;20190;-84
2021/05/25 05:04:01;;;;;;;1.38;0.80;;;9.30;79.60;;;;;;5080273;28;20244;-84
2021/05/25 05:06:28;;;;;;;0.40;0.40;;;9.20;78.80;;;;;;5076617;28;20200;-86
2021/05/25 05:08:55;;;;;;;0.43;0.43;;;9.20;79.10;;;;;;5074234;28;20207;-86
2021/05/25 05:11:21;;;;;;;0.70;0.50;;;9.30;79.10;;;;;;5077283;28;20282;-86
2021/05/25 05:13:50;;;;;;;0.70;0.70;;;9.50;79.90;;;;;;5083732;28;20256;-86
2021/05/25 05:16:16;;;;;;;0.63;0.60;;;9.50;78.30;;;;;;5083553;28;20294;-86
2021/05/25 05:18:43;;;;;;;0.82;0.50;;;9.50;78.00;;;;;;5072500;28;20222;-86
2021/05/25 05:21:10;;;;;;;0.80;0.60;;;9.60;78.30;;;;;;5074366;28;20195;-86
2021/05/25 05:23:37;;;;;;;1.85;0.93;;;9.70;78.00;;;;;;5075477;28;20486;-85
2021/05/25 05:26:04;;;;;;;2.95;0.80;;;9.50;77.20;;;;;;5084591;28;20191;-85
2021/05/25 05:28:30;;;;;;;0.60;0.60;;;9.60;78.70;;;;;;5080183;28;20217;-85
2021/05/25 05:30:57;;;;;;;1.95;0.60;;;9.50;78.20;;;;;;5090270;28;20190;-86
2021/05/25 05:33:24;;;;;;;0.75;0.75;;;9.60;78.30;;;;;;5076986;28;20688;-86
2021/05/25 05:35:56;;;;;;;1.30;0.60;;;9.60;77.90;;;;;;5078702;28;20192;-86
2021/05/25 05:38:25;;;;;;;1.15;0.60;;;9.60;76.90;;;;;;5071206;28;20223;-86
2021/05/25 05:40:54;;;;;;;0.60;0.60;;;9.40;77.20;;;;;;5081734;28;20589;-84
2021/05/25 05:43:20;;;;;;;0.63;0.63;;;9.60;77.70;;;;;;5092476;28;20217;-86
2021/05/25 05:45:47;;;;;;;1.20;0.70;;;9.70;77.90;;;;;;5092789;28;20218;-86
2021/05/25 05:48:14;;;;;;;0.63;0.63;;;9.80;76.40;;;;;;5091518;28;20228;-86
2021/05/25 05:50:40;;;;;;;5.68;0.93;;;10.00;75.40;;;;;;5079440;28;20405;-86
2021/05/25 05:53:07;;;;;;;1.58;0.60;;;10.00;74.10;;;;;;5075819;28;20278;-85
2021/05/25 05:55:34;;;;;;;0.50;0.50;;;9.90;74.50;;;;;;5071839;28;20191;-86
2021/05/25 05:58:05;;;;;;;4.15;0.90;;;10.10;73.40;;;;;;5072199;28;20227;-85
2021/05/25 06:00:31;;;;;;;0.80;0.80;;;10.20;73.10;;;;;;5080917;28;20682;-86
2021/05/25 06:02:58;;;;;;;2.08;0.90;;;9.90;72.50;;;;;;5074049;28;20555;-86
2021/05/25 06:05:25;;;;;;;0.70;0.60;;;9.90;71.50;;;;;;5089009;28;20537;-84
2021/05/25 06:07:52;;;;;;;0.57;0.57;;;10.10;71.20;;;;;;5072660;28;20195;-85
2021/05/25 06:10:19;;;;;;;0.80;0.50;;;9.90;70.90;;;;;;5073909;28;20195;-86
2021/05/25 06:12:51;;;;;;;2.17;0.80;;;10.00;70.60;;;;;;5076288;28;20218;-85
2021/05/25 06:15:18;;;;;;;0.60;0.60;;;10.20;70.70;;;;;;5069858;28;20676;-85
2021/05/25 06:17:44;;;;;;;1.02;0.90;;;10.40;71.70;;;;;;5072352;28;20269;-85
2021/05/25 06:20:12;;;;;;;0.85;0.68;;;10.40;69.60;;;;;;5072383;28;20196;-85
2021/05/25 06:22:39;;;;;;;1.20;0.57;;;10.40;70.10;;;;;;5076772;28;20194;-85
2021/05/25 06:25:07;;;;;;;0.60;0.60;;;10.50;70.60;;;;;;5072396;28;20302;-85
2021/05/25 06:27:34;;;;;;;0.63;0.60;;;10.60;68.70;;;;;;5086597;28;20582;-84
2021/05/25 06:30:02;;;;;;;5.43;0.65;;;10.30;68.60;;;;;;5077412;28;20533;-85
2021/05/25 06:32:28;;;;;;;2.30;1.08;;;10.30;69.20;;;;;;5071561;28;20565;-85
2021/05/25 06:34:55;;;;;;;1.20;0.60;;;10.30;68.70;;;;;;5086840;28;20199;-85
2021/05/25 06:37:22;;;;;;;1.30;0.60;;;10.40;67.60;;;;;;5082734;28;20219;-85
2021/05/25 06:39:48;;;;;;;0.50;0.50;;;10.50;67.80;;;;;;5078625;28;20214;-85
2021/05/25 06:42:15;;;;;;;1.33;0.80;;;10.40;66.90;;;;;;5090538;28;20202;-86
2021/05/25 06:44:41;;;;;;;0.95;0.50;;;10.50;67.40;;;;;;5088396;28;20685;-85
2021/05/25 06:47:08;;;;;;;0.50;0.50;;;10.70;68.00;;;;;;5085033;28;20195;-85
2021/05/25 06:49:35;;;;;;;1.98;0.63;;;10.90;67.10;;;;;;5086065;28;20201;-86
2021/05/25 06:52:01;;;;;;;1.00;0.60;;;10.80;67.00;;;;;;5074332;28;20597;-85
2021/05/25 06:54:29;;;;;;;1.33;0.50;;;10.90;67.40;;;;;;5071932;28;20663;-85
2021/05/25 06:56:55;;;;;;;5.07;0.93;;;11.20;67.10;;;;;;5076425;28;21115;-85
2021/05/25 06:59:22;;;;;;;2.37;0.97;;;11.20;65.40;;;;;;5079808;28;20566;-86
2021/05/25 07:01:48;;;;;;;0.70;0.70;;;11.30;65.10;;;;;;5086178;28;20619;-84
2021/05/25 07:04:16;;;;;;;0.90;0.60;;;11.30;65.90;;;;;;5079524;28;20637;-84
2021/05/25 07:06:42;;;;;;;1.40;0.57;;;11.60;66.10;;;;;;5069614;28;20963;-83
2021/05/25 07:09:09;;;;;;;1.00;0.90;;;11.70;63.60;;;;;;5077075;28;21181;-85
2021/05/25 07:11:35;;;;;;;0.87;0.80;;;11.20;63.00;;;;;;5071125;28;20632;-85
2021/05/25 07:14:02;;;;;;;1.37;0.70;;;11.20;63.20;;;;;;5089680;28;20612;-85
2021/05/25 07:16:29;;;;;;;1.60;1.23;;;11.20;62.60;;;;;;5080373;28;20622;-85
2021/05/25 07:18:55;;;;;;;1.13;0.60;;;11.10;62.40;;;;;;5075081;28;20668;-84
2021/05/25 07:21:30;;;;;;;3.13;0.80;;;11.10;63.00;;;;;;5091097;28;21024;-85
2021/05/25 07:24:00;;;;;;;0.60;0.57;;;11.30;64.10;;;;;;5087846;28;20651;-85
2021/05/25 07:26:28;;;;;;;2.70;0.80;;;11.30;62.70;;;;;;5088779;28;21026;-86
2021/05/25 07:28:55;;;;;;;0.97;0.77;;;11.30;62.30;;;;;;5083517;28;20651;-86
2021/05/25 07:31:21;;;;;;;0.70;0.70;;;11.30;61.70;;;;;;5060126;28;20646;-82
2021/05/25 07:33:48;;;;;;;0.70;0.60;;;11.30;62.00;;;;;;5075918;28;20803;-84
2021/05/25 07:36:14;;;;;;;8.43;0.67;;;11.50;61.40;;;;;;5088949;28;20625;-84
2021/05/25 07:38:42;;;;;;;0.50;0.50;;;11.40;58.90;;;;;;5071375;28;21156;-84
2021/05/25 07:41:09;;;;;;;0.70;0.53;;;11.40;59.40;;;;;;5086094;28;20679;-85
2021/05/25 07:43:36;;;;;;;0.70;0.70;;;11.40;59.80;;;;;;5080889;28;20732;-85
2021/05/25 07:46:05;;;;;;;2.77;0.60;;;11.80;62.80;;;;;;5089197;28;20608;-83
2021/05/25 07:48:32;;;;;;;1.90;0.70;;;12.00;59.70;;;;;;5077358;28;20724;-85
2021/05/25 07:51:00;;;;;;;0.53;0.53;;;12.30;59.80;;;;;;5089872;28;20982;-84
2021/05/25 07:53:27;;;;;;;1.00;0.80;;;12.10;59.30;;;;;;5080943;28;21063;-84
2021/05/25 07:55:54;;;;;;;0.80;0.77;;;12.30;59.80;;;;;;5089198;28;20608;-85
2021/05/25 07:58:21;;;;;;;1.70;1.07;;;12.30;59.10;;;;;;5076075;28;20648;-85
2021/05/25 08:00:47;;;;;;;1.30;0.80;;;12.40;59.00;;;;;;5089821;28;20665;-84
2021/05/25 08:03:16;;;;;;;0.80;0.67;;;12.20;57.40;;;;;;5078956;28;20633;-85
2021/05/25 08:05:43;;;;;;;3.50;0.83;;;12.20;57.90;;;;;;5089265;28;20618;-83
2021/05/25 08:08:11;;;;;;;3.13;1.33;;;12.30;57.90;;;;;;5077999;28;20676;-86
2021/05/25 08:10:37;;;;;;;1.90;0.90;;;12.30;57.60;;;;;;5088394;28;20723;-85
2021/05/25 08:13:05;;;;;;;2.93;0.73;;;12.60;58.10;;;;;;5079808;28;20708;-83
2021/05/25 08:15:34;;;;;;;1.07;0.87;;;12.80;57.20;;;;;;5069225;28;20956;-83
2021/05/25 08:18:12;;;;;;;1.00;0.53;;;12.60;56.50;;;;;;5076818;28;20644;-84
2021/05/25 08:20:39;;;;;;;2.40;0.83;;;12.50;55.80;;;;;;5069753;28;20625;-85
2021/05/25 08:23:09;;;;;;;0.60;0.60;;;12.80;56.10;;;;;;5076915;28;20640;-85
2021/05/25 08:25:37;;;;;;;1.03;0.60;;;13.00;55.60;;;;;;5067899;28;20609;-85
2021/05/25 08:28:06;;;;;;;3.47;0.67;;;13.10;55.60;;;;;;5084363;28;21205;-85
2021/05/25 08:30:35;;;;;;;1.20;0.80;;;13.00;54.30;;;;;;5089660;28;20741;-86
2021/05/25 08:33:03;;;;;;;1.03;0.60;;;12.80;54.50;;;;;;5075815;28;20657;-86
2021/05/25 08:35:34;;;;;;;4.10;0.90;;;12.80;54.70;;;;;;5073508;28;21169;-84
2021/05/25 08:38:02;;;;;;;2.60;0.90;;;12.80;55.10;;;;;;5075959;28;20725;-85
2021/05/25 08:40:29;;;;;;;0.83;0.60;;;13.00;55.90;;;;;;5079975;28;20625;-85
2021/05/25 08:42:56;;;;;;;0.87;0.77;;;12.90;54.50;;;;;;5080777;28;20629;-82
2021/05/25 08:45:25;;;;;;;1.13;0.50;;;12.90;55.00;;;;;;5087636;28;21014;-84
2021/05/25 08:47:53;;;;;;;3.43;0.97;;;13.20;55.90;;;;;;5082011;28;20951;-88
2021/05/25 08:50:24;;;;;;;5.50;1.23;;;13.60;55.60;;;;;;5094411;28;20627;-86
2021/05/25 08:52:51;;;;;;;4.10;0.80;;;13.80;55.50;;;;;;5083262;28;20679;-85
2021/05/25 08:55:19;;;;;;;0.87;0.60;;;13.70;54.00;;;;;;5093463;28;20685;-85
2021/05/25 08:57:46;;;;;;;0.83;0.83;;;13.60;55.20;;;;;;5084279;28;20669;-84
2021/05/25 09:00:14;;;;;;;2.30;0.70;;;13.80;55.00;;;;;;5074711;28;20965;-84
2021/05/25 09:02:41;;;;;;;0.50;0.50;;;13.60;53.90;;;;;;5080455;28;20624;-84
2021/05/25 09:05:09;;;;;;;2.20;0.80;;;13.40;53.80;;;;;;5076408;28;20621;-85
2021/05/25 09:07:41;;;;;;;1.27;0.70;;;13.70;55.90;;;;;;5093170;28;20685;-84
2021/05/25 09:10:14;;;;;;;1.07;0.50;;;13.70;54.90;;;;;;5092616;28;21214;-84
2021/05/25 09:12:44;;;;;;;2.67;0.80;;;13.70;54.20;;;;;;5092951;28;21149;-85
2021/05/25 09:15:13;;;;;;;3.30;0.63;;;13.80;53.90;;;;;;5092361;28;20948;-84
2021/05/25 09:17:39;;;;;;;2.40;0.50;;;13.70;54.20;;;;;;5080837;28;20720;-86
2021/05/25 09:20:09;;;;;;;0.60;0.60;;;13.80;53.60;;;;;;5080737;28;20662;-84
2021/05/25 09:22:37;;;;;;;0.50;0.50;;;14.10;54.60;;;;;;5073601;28;20680;-86
2021/05/25 09:25:13;;;;;;;1.97;0.70;;;14.60;55.60;;;;;;5089693;28;20609;-82
2021/05/25 09:27:41;;;;;;;0.80;0.50;;;14.30;53.10;;;;;;5093353;28;20963;-86
2021/05/25 09:30:20;;;;;;;0.50;0.50;;;14.30;53.30;;;;;;5087667;28;21275;-85
2021/05/25 09:32:52;;;;;;;1.00;0.70;;;14.30;53.00;;;;;;5085541;28;20627;-87
2021/05/25 09:35:22;;;;;;;0.80;0.70;;;14.20;54.30;;;;;;5075006;28;20681;-85
2021/05/25 09:37:51;;;;;;;0.80;0.80;;;14.30;52.40;;;;;;5092844;28;20648;-85
2021/05/25 09:40:20;;;;;;;0.90;0.80;;;14.50;53.30;;;;;;5083894;28;20690;-84
2021/05/25 09:42:47;;;;;;;0.83;0.73;;;14.20;53.40;;;;;;5092221;28;20630;-83
2021/05/25 09:45:16;;;;;;;0.87;0.77;;;14.20;54.20;;;;;;5091590;28;21196;-85
2021/05/25 09:47:44;;;;;;;1.00;0.67;;;14.20;52.90;;;;;;5092994;28;20690;-85
2021/05/25 09:50:13;;;;;;;1.10;0.70;;;14.10;53.10;;;;;;5083097;28;20631;-84
2021/05/25 09:53:06;;;;;;;4.10;0.90;;;14.10;52.10;;;;;;5092880;28;20658;-85
2021/05/25 09:55:47;;;;;;;2.53;0.73;;;13.80;52.60;;;;;;5070978;28;20626;-84
2021/05/25 09:58:14;;;;;;;1.77;0.90;;;14.20;53.00;;;;;;5071507;28;21234;-85
2021/05/25 10:00:43;;;;;;;1.33;0.90;;;13.80;52.10;;;;;;5071448;28;21175;-86
2021/05/25 10:03:13;;;;;;;1.47;1.00;;;13.50;53.10;;;;;;5069084;28;20653;-85
2021/05/25 10:05:43;;;;;;;2.33;0.63;;;13.40;52.80;;;;;;5071582;28;21238;-86
2021/05/25 10:08:12;;;;;;;0.83;0.63;;;13.70;53.00;;;;;;5072202;28;20626;-86
2021/05/25 10:10:39;;;;;;;1.87;0.70;;;14.10;54.50;;;;;;5074043;28;20614;-88
2021/05/25 10:13:06;;;;;;;0.80;0.80;;;14.30;52.00;;;;;;5092263;28;20631;-85
2021/05/25 10:15:33;;;;;;;2.27;0.93;;;14.50;52.90;;;;;;5071886;28;20627;-85
2021/05/25 10:18:28;;;;;;;4.87;1.17;;;14.50;51.70;;;;;;5082180;28;20642;-84
2021/05/25 10:20:55;;;;;;;0.87;0.77;;;14.30;52.30;;;;;;5071632;28;20631;-85
2021/05/25 10:23:23;;;;;;;1.33;0.80;;;14.40;52.50;;;;;;5073046;28;20626;-85
2021/05/25 10:25:53;;;;;;;3.13;0.77;;;14.80;52.40;;;;;;5072348;28;20643;-86
2021/05/25 10:28:22;;;;;;;0.90;0.77;;;15.10;51.00;;;;;;5071743;28;20682;-86
2021/05/25 10:30:50;;;;;;;3.00;0.77;;;15.20;50.90;;;;;;5072361;28;20709;-85
2021/05/25 10:33:25;;;;;;;2.13;0.73;;;15.60;50.30;;;;;;5071632;28;20682;-87
2021/05/25 10:35:54;;;;;;;2.10;0.93;;;15.80;50.70;;;;;;5079071;28;20614;-84
2021/05/25 10:38:24;;;;;;;2.63;0.80;;;15.70;49.50;;;;;;5084449;28;20709;-84
2021/05/25 10:40:53;;;;;;;2.83;1.10;;;15.60;49.20;;;;;;5079525;28;20921;-86
2021/05/25 10:43:44;;;;;;;1.13;0.70;;;15.30;49.10;;;;;;5076230;28;20624;-86
2021/05/25 10:46:28;;;;;;;1.50;0.70;;;14.90;48.60;;;;;;5071199;28;20607;-85
2021/05/25 10:49:06;;;;;;;1.07;0.70;;;14.40;49.40;;;;;;5077567;28;20673;-86
2021/05/25 10:52:15;;;;;;;1.07;0.80;;;14.00;49.80;;;;;;5071134;28;20645;-85
2021/05/25 10:54:57;;;;;;;3.10;1.00;;;14.20;51.50;;;;;;5075864;28;20640;-85
2021/05/25 10:57:51;;;;;;;1.50;1.10;;;14.10;51.40;;;;;;5074150;28;20648;-86
2021/05/25 11:00:36;;;;;;;2.93;1.13;;;14.20;52.20;;;;;;5083768;28;20629;-85
2021/05/25 11:03:04;;;;;;;2.10;0.80;;;14.50;52.50;;;;;;5084721;28;20739;-85
2021/05/25 11:05:49;;;;;;;1.33;0.70;;;14.60;52.00;;;;;;5092940;28;20610;-87
2021/05/25 11:08:37;;;;;;;1.37;0.77;;;14.90;52.10;;;;;;5084246;28;21077;-87
2021/05/25 11:11:11;;;;;;;1.53;1.03;;;14.70;52.10;;;;;;5078641;28;20611;-87
2021/05/25 11:13:40;;;;;;;4.00;1.03;;;14.10;52.00;;;;;;5086568;28;20622;-86
2021/05/25 11:16:13;;;;;;;4.00;1.47;;;14.00;53.40;;;;;;5090389;28;21295;-85
2021/05/25 11:18:44;;;;;;;4.93;1.30;;;13.50;55.40;;;;;;5088069;28;20655;-85
2021/05/25 11:24:37;;;;;;;1.73;1.10;;;12.80;56.80;;;;;;5047245;28;20983;-86
2021/05/25 11:27:07;;;;;;;1.63;1.40;;;12.40;61.70;;;;;;5094530;28;20628;-86
2021/05/25 11:29:35;;;;;;;2.00;1.10;;;12.30;68.10;;;;;;5093477;28;20689;-87
2021/05/25 11:32:06;;;;;;;1.03;0.93;;;12.70;69.40;;;;;;5092050;28;20625;-87
2021/05/25 11:34:32;;;;;;;0.67;0.67;;;12.90;69.40;;;;;;5073618;28;20625;-87
2021/05/25 11:37:01;;;;;;;3.10;0.90;;;13.10;64.90;;;;;;5075613;28;20625;-86
2021/05/25 11:39:30;;;;;;;0.80;0.70;;;13.50;63.20;;;;;;5081478;28;20635;-87
2021/05/25 11:41:57;;;;;;;1.80;0.77;;;13.90;61.30;;;;;;5074613;28;20640;-85
2021/05/25 11:44:33;;;;;;;1.00;0.90;;;14.50;60.10;;;;;;5102750;28;20621;-83
2021/05/25 11:47:04;;;;;;;1.27;0.90;;;14.00;56.70;;;;;;5084967;28;20622;-86
2021/05/25 11:49:39;;;;;;;1.57;0.93;;;14.30;57.60;;;;;;5084918;28;20625;-86
2021/05/25 11:52:26;;;;;;;2.50;1.00;;;14.40;56.30;;;;;;5089845;28;21396;-88
2021/05/25 11:54:54;;;;;;;2.00;0.73;;;14.50;56.50;;;;;;5078700;28;20624;-86
2021/05/25 11:57:40;;;;;;;0.80;0.70;;;15.30;55.40;;;;;;5082658;28;21021;-87
2021/05/25 12:00:13;;;;;;;2.17;0.70;;;16.80;53.60;;;;;;5087983;28;20675;-85
2021/05/25 12:02:41;;;;;;;2.13;1.00;;;18.10;51.60;;;;;;5076660;28;20643;-87
2021/05/25 12:05:15;;;;;;;1.50;1.10;;;19.10;48.10;;;;;;5086232;28;20620;-87
2021/05/25 12:07:45;;;;;;;2.10;0.90;;;21.00;47.30;;;;;;5069085;28;20644;-87
2021/05/25 12:10:14;;;;;;;1.10;0.80;;;21.80;42.80;;;;;;5084122;28;20638;-85
2021/05/25 12:12:42;;;;;;;1.57;1.17;;;21.20;41.20;;;;;;5085223;28;20637;-86
2021/05/25 12:15:18;;;;;;;1.70;1.33;;;22.20;41.80;;;;;;5090209;28;20685;-86
2021/05/25 12:17:48;;;;;;;2.30;0.90;;;23.30;41.20;;;;;;5074091;28;20719;-85
2021/05/25 12:20:19;;;;;;;2.47;0.90;;;23.40;37.80;;;;;;5083267;28;20680;-87
2021/05/25 12:22:48;;;;;;;1.27;0.80;;;25.80;38.20;;;;;;5071525;28;21208;-86
2021/05/25 12:25:26;;;;;;;0.90;0.70;;;22.30;34.40;;;;;;5088735;28;20628;-88
2021/05/25 12:27:55;;;;;;;2.20;0.93;;;22.60;37.90;;;;;;5085389;28;20644;-88
2021/05/25 12:30:23;;;;;;;1.63;1.00;;;20.60;37.50;;;;;;5088387;28;20669;-86
2021/05/25 12:32:50;;;;;;;0.93;0.80;;;19.50;40.10;;;;;;5074068;28;20615;-87
2021/05/25 12:35:21;;;;;;;2.00;0.70;;;19.20;41.60;;;;;;5075685;28;20697;-87
2021/05/25 12:38:05;;;;;;;1.33;0.70;;;18.40;41.00;;;;;;5079161;28;20698;-87
2021/05/25 12:40:32;;;;;;;0.80;0.63;;;18.00;40.70;;;;;;5083815;28;20648;-87
2021/05/25 12:42:58;;;;;;;1.00;0.93;;;17.70;42.50;;;;;;5093810;28;20627;-86
2021/05/25 12:45:30;;;;;;;2.33;2.23;;;16.10;42.30;;;;;;5081867;28;20620;-85
2021/05/25 12:47:58;;;;;;;1.33;1.03;;;15.80;45.30;;;;;;5075419;28;20629;-86
2021/05/25 12:50:26;;;;;;;2.20;0.90;;;16.40;50.00;;;;;;5076187;28;21194;-88
2021/05/25 12:53:06;;;;;;;1.00;0.80;;;18.70;51.40;;;;;;5085998;28;20619;-86
2021/05/25 12:55:34;;;;;;;2.30;0.90;;;20.40;45.70;;;;;;5076975;28;20612;-84
2021/05/25 12:58:01;;;;;;;2.10;1.10;;;21.90;42.00;;;;;;5093486;28;20648;-88
2021/05/25 13:00:30;;;;;;;3.43;0.97;;;23.00;39.80;;;;;;5092029;28;20622;-87
2021/05/25 13:02:57;;;;;;;2.53;0.93;;;22.10;37.20;;;;;;5085626;28;20632;-85
2021/05/25 13:05:26;;;;;;;1.63;0.60;;;20.80;37.10;;;;;;5091511;28;20642;-88